Odiham, United Kingdom
Current Conditions -  °F | °C
As of 3:50 PM on Saturday 22 Nov 2014 (Local Time) from EGVO Reporting Station
Haze Haze  
Wind Chill: 55°   Ceiling: 3000
Heat Index: 55°   Visibility: 4mi
Dew Point: 55°   Wind: 7mph
Humidity: 100%   Direction: 170°S
Pressure: 29.91"   Gusts: NA
Location:  51.25°N, 0.94°W
Report Text: EGVO 221550Z 17006KT 6000 BR FEW006 BKN030 BKN050 13/13 Q1013 WHT
Loading
Personal Weather Stations






























Interactive Weather Map New forecast layout! Learn more

10-Day Weather Forecast

Advertisements
Track Severe Weather on mobile